createdAt,value
2023-04-01T00:01:41.444Z,10.98
2023-04-01T00:04:45.491Z,11.43
2023-04-01T00:07:47.539Z,12.68
2023-04-01T00:10:52.378Z,12.48
2023-04-01T00:13:54.363Z,13.67
2023-04-01T00:16:56.444Z,11.85
2023-04-01T00:20:01.389Z,13.57
2023-04-01T00:23:04.536Z,15.52
2023-04-01T00:26:06.508Z,16.27
2023-04-01T00:29:09.062Z,16.55
2023-04-01T00:32:11.263Z,11.88
2023-04-01T00:35:14.158Z,17.50
2023-04-01T00:38:17.951Z,15.15
2023-04-01T00:41:22.489Z,13.32
2023-04-01T00:44:30.992Z,15.18
2023-04-01T00:47:32.993Z,14.68
2023-04-01T00:50:36.894Z,10.20
2023-04-01T00:53:42.648Z,12.57
2023-04-01T00:56:57.260Z,13.75
2023-04-01T01:00:00.392Z,14.32
2023-04-01T01:03:03.698Z,11.77
2023-04-01T01:06:26.157Z,12.98
2023-04-01T01:09:44.350Z,14.57
2023-04-01T01:13:02.690Z,15.27
2023-04-01T01:16:19.162Z,12.38
2023-04-01T01:19:53.995Z,18.52
2023-04-01T01:23:07.710Z,18.23
2023-04-01T01:26:34.166Z,14.13
2023-04-01T01:29:47.686Z,15.27
2023-04-01T01:33:31.508Z,15.95
2023-04-01T01:36:38.769Z,13.95
2023-04-01T01:39:47.953Z,16.52
2023-04-01T01:42:58.882Z,16.23
2023-04-01T01:46:06.640Z,15.88
2023-04-01T01:49:13.224Z,15.20
2023-04-01T01:52:17.247Z,14.80
2023-04-01T01:55:37.079Z,14.32
2023-04-01T01:58:48.807Z,13.70
2023-04-01T02:01:57.138Z,14.27
2023-04-01T02:05:08.052Z,14.48
2023-04-01T02:08:23.903Z,16.75
2023-04-01T02:11:33.521Z,13.73
2023-04-01T02:14:49.265Z,17.48
2023-04-01T02:17:52.570Z,15.43
2023-04-01T02:20:57.066Z,15.48
2023-04-01T02:24:02.550Z,16.52
2023-04-01T02:27:09.892Z,14.40
2023-04-01T02:30:13.306Z,12.57
2023-04-01T02:33:15.586Z,16.65
2023-04-01T02:36:22.729Z,17.83
2023-04-01T02:39:27.374Z,15.45
2023-04-01T02:42:29.275Z,13.93
2023-04-01T02:45:31.359Z,14.02
2023-04-01T02:48:33.343Z,15.98
2023-04-01T02:51:37.370Z,19.33
2023-04-01T02:54:41.916Z,16.30
2023-04-01T02:57:48.605Z,14.30
2023-04-01T03:00:50.515Z,14.05
2023-04-01T03:03:52.382Z,14.02
2023-04-01T03:06:54.349Z,21.48
2023-04-01T03:09:56.219Z,17.38
2023-04-01T03:13:00.449Z,18.95
2023-04-01T03:16:02.475Z,19.55
2023-04-01T03:19:04.367Z,18.50
2023-04-01T03:22:06.551Z,16.25
2023-04-01T03:25:10.973Z,20.50
2023-04-01T03:28:14.252Z,15.98
2023-04-01T03:31:17.304Z,19.35
2023-04-01T03:34:29.145Z,17.88
2023-04-01T03:37:31.586Z,18.40
2023-04-01T03:40:34.166Z,18.67
2023-04-01T03:43:40.279Z,18.25
2023-04-01T03:46:47.791Z,21.73
2023-04-01T03:49:51.951Z,18.85
2023-04-01T03:52:53.961Z,20.17
2023-04-01T03:55:58.937Z,19.25
2023-04-01T03:59:04.968Z,23.38
2023-04-01T04:02:10.179Z,23.60
2023-04-01T04:05:14.327Z,27.27
2023-04-01T04:08:17.181Z,25.02
2023-04-01T04:11:20.374Z,20.92
2023-04-01T04:14:24.517Z,25.05
2023-04-01T04:17:28.208Z,22.20
2023-04-01T04:20:30.468Z,23.55
2023-04-01T04:23:34.558Z,19.53
2023-04-01T04:26:37.225Z,24.40
2023-04-01T04:29:39.131Z,20.45
2023-04-01T04:32:43.513Z,29.63
2023-04-01T04:35:47.303Z,23.85
2023-04-01T04:38:49.558Z,28.38
2023-04-01T04:41:51.698Z,21.52
2023-04-01T04:44:54.283Z,22.73
2023-04-01T04:47:56.175Z,23.23
2023-04-01T04:50:58.087Z,25.42
2023-04-01T04:54:00.083Z,22.00
2023-04-01T04:57:16.160Z,22.50
2023-04-01T05:00:28.173Z,23.97
2023-04-01T05:03:35.189Z,22.00
2023-04-01T05:06:39.771Z,18.40
2023-04-01T05:09:42.174Z,20.80
2023-04-01T05:12:44.433Z,17.55
2023-04-01T05:15:50.926Z,18.65
2023-04-01T05:18:54.775Z,16.87
2023-04-01T05:21:57.602Z,15.82
2023-04-01T05:25:01.454Z,16.95
2023-04-01T05:28:04.443Z,16.15
2023-04-01T05:31:07.633Z,14.57
2023-04-01T05:34:16.548Z,16.70
2023-04-01T05:37:20.316Z,14.00
2023-04-01T05:40:23.416Z,18.13
2023-04-01T05:43:25.381Z,11.98
2023-04-01T05:46:29.702Z,15.73
2023-04-01T05:49:57.092Z,14.10
2023-04-01T05:52:59.263Z,12.68
2023-04-01T05:56:06.127Z,12.38
2023-04-01T05:59:13.794Z,14.55
2023-04-01T06:02:18.767Z,14.68
2023-04-01T06:05:27.877Z,13.00
2023-04-01T06:08:32.277Z,14.15
2023-04-01T06:12:01.415Z,14.48
2023-04-01T06:15:08.101Z,13.10
2023-04-01T06:18:17.230Z,12.02
2023-04-01T06:21:57.031Z,13.13
2023-04-01T06:25:11.052Z,11.98
2023-04-01T06:28:37.960Z,17.95
2023-04-01T06:32:17.938Z,13.43
2023-04-01T06:35:28.299Z,14.40
2023-04-01T06:38:47.002Z,16.92
2023-04-01T06:42:25.180Z,15.05
2023-04-01T06:45:31.697Z,15.10
2023-04-01T06:48:55.457Z,17.15
2023-04-01T06:52:22.082Z,19.20
2023-04-01T06:55:51.083Z,17.77
2023-04-01T06:59:23.722Z,18.00
2023-04-01T07:02:56.686Z,19.42
2023-04-01T07:06:03.490Z,21.00
2023-04-01T07:09:12.372Z,18.48
2023-04-01T07:12:37.105Z,20.23
2023-04-01T07:16:26.939Z,19.95
2023-04-01T07:19:43.828Z,19.88
2023-04-01T07:22:49.992Z,19.10
2023-04-01T07:26:34.121Z,17.40
2023-04-01T07:29:51.244Z,18.98
2023-04-01T07:33:17.817Z,22.25
2023-04-01T07:36:41.584Z,22.20
2023-04-01T07:39:46.454Z,23.08
2023-04-01T07:43:19.829Z,22.13
2023-04-01T07:47:14.807Z,22.75
2023-04-01T07:50:20.335Z,23.35
2023-04-01T07:54:03.610Z,20.70
2023-04-01T07:57:08.570Z,25.02
2023-04-01T08:00:29.857Z,21.60
2023-04-01T08:04:10.961Z,21.27
2023-04-01T08:07:25.181Z,20.80
2023-04-01T08:10:57.219Z,22.92
2023-04-01T08:14:27.997Z,21.13
2023-04-01T08:18:01.066Z,23.77
2023-04-01T08:21:20.664Z,22.33
2023-04-01T08:24:46.947Z,24.98
2023-04-01T08:28:14.636Z,22.80
2023-04-01T08:31:49.865Z,24.58
2023-04-01T08:35:02.383Z,25.30
2023-04-01T08:38:43.380Z,24.45
2023-04-01T08:42:11.645Z,22.33
2023-04-01T08:46:00.199Z,27.85
2023-04-01T08:49:04.920Z,28.88
2023-04-01T08:52:51.198Z,28.63
2023-04-01T08:56:16.482Z,23.02
2023-04-01T08:59:44.637Z,24.67
2023-04-01T09:03:34.336Z,27.40
2023-04-01T09:07:04.212Z,23.70
2023-04-01T09:10:07.112Z,25.85
2023-04-01T09:13:19.216Z,24.52
2023-04-01T09:16:36.891Z,25.23
2023-04-01T09:20:04.925Z,25.23
2023-04-01T09:23:31.804Z,27.27
2023-04-01T09:26:38.675Z,31.17
2023-04-01T09:30:14.145Z,27.02
2023-04-01T09:33:47.831Z,26.25
2023-04-01T09:37:20.426Z,28.00
2023-04-01T09:40:53.041Z,27.83
2023-04-01T09:44:42.982Z,28.55
2023-04-01T09:48:15.146Z,27.80
2023-04-01T09:51:26.145Z,26.27
2023-04-01T09:54:53.004Z,25.55
2023-04-01T09:58:29.241Z,26.63
2023-04-01T10:02:12.634Z,27.40
2023-04-01T10:05:51.855Z,25.25
2023-04-01T10:09:25.717Z,25.45
2023-04-01T10:13:02.680Z,22.58
2023-04-01T10:16:46.690Z,24.73
2023-04-01T10:20:13.442Z,28.63
2023-04-01T10:23:53.637Z,25.88
2023-04-01T10:27:22.438Z,24.95
2023-04-01T10:31:30.856Z,24.70
2023-04-01T10:35:04.855Z,27.02
2023-04-01T10:38:31.190Z,29.45
2023-04-01T10:45:08.541Z,27.67
2023-04-01T10:49:04.990Z,29.70
2023-04-01T10:52:45.050Z,33.63
2023-04-01T10:56:11.339Z,30.85
2023-04-01T11:00:16.431Z,28.30
2023-04-01T11:04:05.101Z,23.35
2023-04-01T11:07:31.273Z,27.13
2023-04-01T11:11:04.434Z,28.52
2023-04-01T11:14:17.722Z,27.42
2023-04-01T11:17:29.320Z,28.67
2023-04-01T11:20:44.046Z,32.35
2023-04-01T11:23:55.090Z,33.70
2023-04-01T11:27:17.269Z,31.65
2023-04-01T11:30:35.186Z,28.48
2023-04-01T11:33:47.671Z,31.13
2023-04-01T11:37:11.869Z,31.15
2023-04-01T11:40:46.550Z,28.17
2023-04-01T11:44:20.158Z,32.47
2023-04-01T11:51:41.744Z,35.42
2023-04-01T11:54:54.741Z,35.08
2023-04-01T11:58:34.797Z,34.65
2023-04-01T12:02:21.337Z,40.63
2023-04-01T12:05:42.007Z,37.90
2023-04-01T12:08:49.811Z,36.35
2023-04-01T12:12:13.441Z,36.05
2023-04-01T12:15:38.036Z,37.85
2023-04-01T12:18:57.817Z,36.73
2023-04-01T12:22:38.092Z,37.30
2023-04-01T12:26:19.601Z,36.63
2023-04-01T12:29:53.415Z,39.13
2023-04-01T12:33:17.436Z,79.43
2023-04-01T12:36:49.966Z,86.55
2023-04-01T12:40:07.442Z,44.60
2023-04-01T12:43:14.845Z,63.42
2023-04-01T12:46:33.557Z,68.35
2023-04-01T12:50:09.514Z,47.70
2023-04-01T12:53:35.769Z,59.10
2023-04-01T12:56:55.843Z,57.70
2023-04-01T13:00:11.434Z,36.88
2023-04-01T13:03:28.480Z,37.58
2023-04-01T13:06:49.938Z,40.95
2023-04-01T13:10:04.015Z,36.50
2023-04-01T13:13:43.529Z,34.30
2023-04-01T13:17:03.789Z,32.00
2023-04-01T13:20:24.376Z,35.05
2023-04-01T13:23:40.990Z,38.25
2023-04-01T13:27:15.763Z,31.58
2023-04-01T13:30:37.518Z,32.40
2023-04-01T13:33:56.540Z,32.10
2023-04-01T13:37:40.303Z,31.52
2023-04-01T13:41:03.594Z,26.88
2023-04-01T13:44:11.052Z,26.85
2023-04-01T13:47:28.050Z,29.30
2023-04-01T13:51:05.898Z,28.05
2023-04-01T13:54:13.785Z,27.63
2023-04-01T13:57:15.622Z,29.60
2023-04-01T14:00:32.865Z,40.38
2023-04-01T14:03:59.767Z,30.75
2023-04-01T14:07:01.588Z,28.88
2023-04-01T14:10:12.332Z,21.30
2023-04-01T14:14:05.098Z,19.70
2023-04-01T14:17:21.767Z,20.00
2023-04-01T14:20:23.608Z,18.23
2023-04-01T14:23:57.766Z,18.95
2023-04-01T14:27:10.071Z,18.25
2023-04-01T14:30:46.942Z,15.73
2023-04-01T14:34:12.059Z,16.80
2023-04-01T14:37:33.651Z,16.92
2023-04-01T14:41:00.118Z,15.60
2023-04-01T14:44:10.922Z,17.58
2023-04-01T14:47:40.607Z,14.43
2023-04-01T14:50:51.907Z,18.35
2023-04-01T14:54:11.779Z,16.08
2023-04-01T14:57:17.784Z,14.65
2023-04-01T15:00:22.197Z,19.90
2023-04-01T15:03:30.526Z,18.58
2023-04-01T15:06:44.482Z,19.15
2023-04-01T15:10:22.354Z,19.42
2023-04-01T15:13:30.536Z,100.40
2023-04-01T15:16:57.472Z,181.05
2023-04-01T15:20:11.938Z,27.67
2023-04-01T15:23:43.138Z,87.20
2023-04-01T15:27:09.023Z,279.75
2023-04-01T15:30:13.570Z,472.90
2023-04-01T15:33:42.376Z,459.33
2023-04-01T15:37:18.090Z,420.38
2023-04-01T15:40:36.985Z,21.50
2023-04-01T15:43:49.732Z,184.85
2023-04-01T15:46:53.132Z,126.93
2023-04-01T15:50:19.527Z,115.60
2023-04-01T15:53:43.225Z,16.20
2023-04-01T15:57:04.263Z,21.38
2023-04-01T16:00:44.595Z,24.13
2023-04-01T16:04:25.510Z,57.90
2023-04-01T16:07:45.586Z,30.90
2023-04-01T16:11:10.877Z,29.45
2023-04-01T16:14:21.282Z,35.20
2023-04-01T16:18:08.021Z,37.28
2023-04-01T16:21:25.890Z,113.28
2023-04-01T16:24:50.486Z,43.45
2023-04-01T16:28:21.167Z,63.92
2023-04-01T16:31:36.875Z,123.88
2023-04-01T16:35:13.987Z,111.28
2023-04-01T16:38:30.970Z,39.00
2023-04-01T16:41:38.111Z,48.47
2023-04-01T16:45:00.722Z,50.75
2023-04-01T16:48:13.210Z,43.58
2023-04-01T16:51:27.594Z,41.67
2023-04-01T16:54:44.039Z,23.48
2023-04-01T16:57:57.188Z,41.28
2023-04-01T17:05:00.412Z,51.72
2023-04-01T17:08:31.551Z,186.07
2023-04-01T17:12:26.196Z,63.53
2023-04-01T17:16:05.551Z,45.53
2023-04-01T17:19:43.625Z,45.30
2023-04-01T17:23:09.320Z,45.80
2023-04-01T17:26:32.756Z,41.40
2023-04-01T17:30:06.700Z,60.25
2023-04-01T17:33:20.523Z,57.42
2023-04-01T17:36:46.090Z,43.15
2023-04-01T17:39:50.310Z,37.35
2023-04-01T17:43:04.052Z,34.38
2023-04-01T17:46:13.478Z,67.03
2023-04-01T17:49:24.099Z,47.05
2023-04-01T17:52:29.096Z,36.83
2023-04-01T17:55:51.574Z,46.05
2023-04-01T17:59:22.980Z,42.90
2023-04-01T18:02:52.814Z,113.97
2023-04-01T18:06:16.137Z,52.45
2023-04-01T18:09:37.955Z,42.83
2023-04-01T18:12:58.300Z,74.60
2023-04-01T18:16:21.239Z,40.78
2023-04-01T18:19:49.700Z,19.23
2023-04-01T18:23:00.525Z,94.20
2023-04-01T18:26:23.322Z,53.30
2023-04-01T18:30:07.360Z,52.00
2023-04-01T18:33:33.229Z,59.70
2023-04-01T18:37:01.272Z,28.95
2023-04-01T18:40:16.800Z,114.60
2023-04-01T18:43:21.514Z,24.83
2023-04-01T18:46:54.472Z,52.95
2023-04-01T18:50:40.847Z,38.33
2023-04-01T18:53:49.503Z,28.17
2023-04-01T18:57:05.316Z,28.05
2023-04-01T19:00:19.797Z,42.80
2023-04-01T19:03:35.565Z,32.97
2023-04-01T19:06:55.870Z,51.50
2023-04-01T19:10:02.332Z,47.53
2023-04-01T19:13:33.417Z,23.20
2023-04-01T19:16:51.627Z,21.58
2023-04-01T19:20:11.519Z,23.92
2023-04-01T19:23:38.170Z,28.17
2023-04-01T19:27:02.016Z,21.10
2023-04-01T19:30:37.572Z,23.90
2023-04-01T19:34:05.576Z,30.05
2023-04-01T19:37:23.575Z,21.33
2023-04-01T19:40:40.479Z,13.38
2023-04-01T19:43:51.165Z,18.90
2023-04-01T19:46:56.245Z,23.48
2023-04-01T19:50:10.408Z,22.90
2023-04-01T19:53:20.745Z,24.88
2023-04-01T19:56:24.844Z,19.90
2023-04-01T19:59:44.121Z,12.02
2023-04-01T20:03:04.564Z,16.48
2023-04-01T20:06:33.802Z,15.02
2023-04-01T20:09:41.611Z,12.88
2023-04-01T20:12:49.146Z,12.02
2023-04-01T20:16:03.845Z,14.85
2023-04-01T20:19:07.562Z,13.25
2023-04-01T20:22:38.376Z,14.65
2023-04-01T20:25:53.133Z,13.02
2023-04-01T20:29:25.845Z,12.45
2023-04-01T20:32:33.825Z,11.63
2023-04-01T20:35:51.648Z,10.52
2023-04-01T20:39:32.303Z,13.65
2023-04-01T20:42:56.463Z,11.43
2023-04-01T20:46:22.303Z,14.93
2023-04-01T20:49:52.054Z,15.18
2023-04-01T20:53:27.634Z,13.25
2023-04-01T20:56:29.746Z,12.63
2023-04-01T21:00:19.264Z,13.88
2023-04-01T21:03:43.866Z,11.82
2023-04-01T21:06:49.912Z,11.52
2023-04-01T21:10:18.330Z,10.45
2023-04-01T21:14:09.536Z,9.63
2023-04-01T21:17:23.249Z,9.65
2023-04-01T21:20:35.792Z,12.70
2023-04-01T21:23:55.766Z,12.18
2023-04-01T21:27:19.132Z,10.27
2023-04-01T21:34:33.608Z,11.55
2023-04-01T21:37:47.783Z,12.50
2023-04-01T21:41:10.506Z,11.20
2023-04-01T21:44:33.569Z,12.80
2023-04-01T21:48:04.977Z,9.90
2023-04-01T21:51:21.844Z,9.30
2023-04-01T21:54:44.869Z,10.93
2023-04-01T21:57:59.166Z,13.18
2023-04-01T22:01:10.257Z,10.82
2023-04-01T22:04:38.205Z,10.77
2023-04-01T22:08:17.428Z,11.05
2023-04-01T22:11:33.613Z,11.05
2023-04-01T22:15:26.435Z,11.88
2023-04-01T22:18:41.398Z,13.00
2023-04-01T22:22:13.726Z,13.02
2023-04-01T22:25:19.953Z,9.95
2023-04-01T22:28:31.409Z,12.48
2023-04-01T22:31:45.844Z,11.90
2023-04-01T22:35:09.503Z,11.70
2023-04-01T22:38:17.302Z,16.92
2023-04-01T22:41:22.439Z,22.85
2023-04-01T22:44:53.529Z,10.90
2023-04-01T22:48:20.506Z,23.50
2023-04-01T22:51:54.231Z,19.55
2023-04-01T22:55:05.581Z,13.20
2023-04-01T22:58:16.160Z,10.68
2023-04-01T23:01:25.786Z,11.27
2023-04-01T23:04:42.147Z,12.60
2023-04-01T23:08:04.455Z,10.05
2023-04-01T23:11:13.714Z,10.30
2023-04-01T23:14:24.384Z,7.95
2023-04-01T23:17:47.589Z,12.70
2023-04-01T23:21:09.828Z,11.07
2023-04-01T23:24:23.564Z,11.05
2023-04-01T23:27:38.256Z,11.40
2023-04-01T23:30:41.422Z,13.90
2023-04-01T23:33:45.687Z,11.65
2023-04-01T23:36:50.066Z,11.38
2023-04-01T23:39:57.457Z,10.70
2023-04-01T23:43:01.575Z,10.73
2023-04-01T23:46:06.210Z,8.23
2023-04-01T23:49:16.945Z,10.77
2023-04-01T23:52:25.844Z,12.45
2023-04-01T23:55:34.646Z,8.05
2023-04-01T23:58:39.372Z,9.85
